sensor_id;sensor_type;location;lat;lon;timestamp;P1;durP1;ratioP1;P2;durP2;ratioP2
40793;SDS011;26502;51.886;15.604;2022-11-20T00:04:52;18.00;;;10.10;;
40793;SDS011;26502;51.886;15.604;2022-11-20T00:10:00;47.50;;;16.90;;
40793;SDS011;26502;51.886;15.604;2022-11-20T00:15:09;26.70;;;12.60;;
40793;SDS011;26502;51.886;15.604;2022-11-20T00:20:16;42.50;;;17.30;;
40793;SDS011;26502;51.886;15.604;2022-11-20T00:25:23;14.90;;;9.30;;
40793;SDS011;26502;51.886;15.604;2022-11-20T00:30:31;37.20;;;14.40;;
40793;SDS011;26502;51.886;15.604;2022-11-20T00:35:38;28.60;;;13.60;;
40793;SDS011;26502;51.886;15.604;2022-11-20T00:40:45;24.30;;;13.70;;
40793;SDS011;26502;51.886;15.604;2022-11-20T00:46:01;50.10;;;20.50;;
40793;SDS011;26502;51.886;15.604;2022-11-20T00:51:10;36.10;;;24.00;;
40793;SDS011;26502;51.886;15.604;2022-11-20T00:56:19;89.90;;;27.10;;
40793;SDS011;26502;51.886;15.604;2022-11-20T01:01:26;112.60;;;30.80;;
40793;SDS011;26502;51.886;15.604;2022-11-20T01:06:34;113.30;;;33.30;;
40793;SDS011;26502;51.886;15.604;2022-11-20T01:11:43;52.10;;;19.10;;
40793;SDS011;26502;51.886;15.604;2022-11-20T01:16:52;31.30;;;11.00;;
40793;SDS011;26502;51.886;15.604;2022-11-20T01:21:59;110.80;;;29.50;;
40793;SDS011;26502;51.886;15.604;2022-11-20T01:27:06;130.70;;;43.80;;
40793;SDS011;26502;51.886;15.604;2022-11-20T01:32:13;65.90;;;19.90;;
40793;SDS011;26502;51.886;15.604;2022-11-20T01:37:21;71.20;;;23.00;;
40793;SDS011;26502;51.886;15.604;2022-11-20T01:42:28;44.30;;;16.00;;
40793;SDS011;26502;51.886;15.604;2022-11-20T01:47:53;60.40;;;18.60;;
40793;SDS011;26502;51.886;15.604;2022-11-20T01:53:03;77.40;;;24.60;;
40793;SDS011;26502;51.886;15.604;2022-11-20T01:58:14;56.30;;;21.80;;
40793;SDS011;26502;51.886;15.604;2022-11-20T02:03:25;24.00;;;13.70;;
40793;SDS011;26502;51.886;15.604;2022-11-20T02:08:33;23.50;;;14.00;;
40793;SDS011;26502;51.886;15.604;2022-11-20T02:13:41;25.80;;;13.70;;
40793;SDS011;26502;51.886;15.604;2022-11-20T02:18:50;32.10;;;17.70;;
40793;SDS011;26502;51.886;15.604;2022-11-20T02:24:03;26.40;;;15.40;;
40793;SDS011;26502;51.886;15.604;2022-11-20T02:29:13;29.50;;;16.20;;
40793;SDS011;26502;51.886;15.604;2022-11-20T02:34:24;24.80;;;14.90;;
40793;SDS011;26502;51.886;15.604;2022-11-20T02:39:31;28.90;;;16.40;;
40793;SDS011;26502;51.886;15.604;2022-11-20T02:44:38;35.30;;;18.80;;
40793;SDS011;26502;51.886;15.604;2022-11-20T02:49:45;48.50;;;22.80;;
40793;SDS011;26502;51.886;15.604;2022-11-20T02:54:52;39.40;;;21.20;;
40793;SDS011;26502;51.886;15.604;2022-11-20T02:59:59;41.60;;;20.20;;
40793;SDS011;26502;51.886;15.604;2022-11-20T03:05:08;44.30;;;22.70;;
40793;SDS011;26502;51.886;15.604;2022-11-20T03:10:16;50.30;;;24.00;;
40793;SDS011;26502;51.886;15.604;2022-11-20T03:15:24;30.10;;;15.70;;
40793;SDS011;26502;51.886;15.604;2022-11-20T03:20:31;25.60;;;15.40;;
40793;SDS011;26502;51.886;15.604;2022-11-20T03:25:38;43.90;;;20.80;;
40793;SDS011;26502;51.886;15.604;2022-11-20T03:30:48;32.50;;;17.50;;
40793;SDS011;26502;51.886;15.604;2022-11-20T03:35:57;31.00;;;17.10;;
40793;SDS011;26502;51.886;15.604;2022-11-20T03:41:08;26.90;;;15.50;;
40793;SDS011;26502;51.886;15.604;2022-11-20T03:46:17;16.40;;;10.50;;
40793;SDS011;26502;51.886;15.604;2022-11-20T03:51:24;22.10;;;13.20;;
40793;SDS011;26502;51.886;15.604;2022-11-20T03:56:34;28.80;;;17.00;;
40793;SDS011;26502;51.886;15.604;2022-11-20T04:06:49;26.80;;;15.40;;
40793;SDS011;26502;51.886;15.604;2022-11-20T04:11:56;30.40;;;15.70;;
40793;SDS011;26502;51.886;15.604;2022-11-20T04:17:04;22.80;;;13.70;;
40793;SDS011;26502;51.886;15.604;2022-11-20T04:22:11;19.90;;;12.80;;
40793;SDS011;26502;51.886;15.604;2022-11-20T04:27:20;22.20;;;13.60;;
40793;SDS011;26502;51.886;15.604;2022-11-20T04:32:27;20.40;;;13.70;;
40793;SDS011;26502;51.886;15.604;2022-11-20T04:37:34;22.50;;;14.10;;
40793;SDS011;26502;51.886;15.604;2022-11-20T04:42:42;26.00;;;14.40;;
40793;SDS011;26502;51.886;15.604;2022-11-20T04:47:50;22.60;;;14.80;;
40793;SDS011;26502;51.886;15.604;2022-11-20T04:52:57;22.10;;;14.50;;
40793;SDS011;26502;51.886;15.604;2022-11-20T04:58:05;29.10;;;15.50;;
40793;SDS011;26502;51.886;15.604;2022-11-20T05:03:15;27.70;;;16.00;;
40793;SDS011;26502;51.886;15.604;2022-11-20T05:08:25;32.40;;;16.40;;
40793;SDS011;26502;51.886;15.604;2022-11-20T05:13:32;31.80;;;17.80;;
40793;SDS011;26502;51.886;15.604;2022-11-20T05:18:41;29.90;;;16.80;;
40793;SDS011;26502;51.886;15.604;2022-11-20T05:23:48;31.00;;;17.10;;
40793;SDS011;26502;51.886;15.604;2022-11-20T05:28:57;26.90;;;15.90;;
40793;SDS011;26502;51.886;15.604;2022-11-20T05:34:06;29.30;;;17.20;;
40793;SDS011;26502;51.886;15.604;2022-11-20T05:39:14;29.90;;;17.40;;
40793;SDS011;26502;51.886;15.604;2022-11-20T05:44:21;28.10;;;16.40;;
40793;SDS011;26502;51.886;15.604;2022-11-20T05:49:28;28.70;;;16.70;;
40793;SDS011;26502;51.886;15.604;2022-11-20T05:54:35;36.40;;;18.70;;
40793;SDS011;26502;51.886;15.604;2022-11-20T05:59:42;34.00;;;17.60;;
40793;SDS011;26502;51.886;15.604;2022-11-20T06:04:50;29.60;;;17.80;;
40793;SDS011;26502;51.886;15.604;2022-11-20T06:09:57;27.80;;;15.90;;
40793;SDS011;26502;51.886;15.604;2022-11-20T06:15:07;27.70;;;16.00;;
40793;SDS011;26502;51.886;15.604;2022-11-20T06:20:15;43.10;;;24.80;;
40793;SDS011;26502;51.886;15.604;2022-11-20T06:25:22;35.10;;;19.20;;
40793;SDS011;26502;51.886;15.604;2022-11-20T06:30:29;30.20;;;19.20;;
40793;SDS011;26502;51.886;15.604;2022-11-20T06:35:36;29.00;;;18.30;;
40793;SDS011;26502;51.886;15.604;2022-11-20T06:40:44;37.30;;;22.50;;
40793;SDS011;26502;51.886;15.604;2022-11-20T06:45:53;39.50;;;22.00;;
40793;SDS011;26502;51.886;15.604;2022-11-20T06:51:01;33.60;;;19.10;;
40793;SDS011;26502;51.886;15.604;2022-11-20T06:56:10;36.80;;;21.60;;
40793;SDS011;26502;51.886;15.604;2022-11-20T07:01:18;41.60;;;22.10;;
40793;SDS011;26502;51.886;15.604;2022-11-20T07:06:25;29.90;;;17.30;;
40793;SDS011;26502;51.886;15.604;2022-11-20T07:11:32;36.80;;;20.50;;
40793;SDS011;26502;51.886;15.604;2022-11-20T07:16:40;39.30;;;22.60;;
40793;SDS011;26502;51.886;15.604;2022-11-20T07:21:48;42.10;;;21.10;;
40793;SDS011;26502;51.886;15.604;2022-11-20T07:26:56;34.00;;;18.80;;
40793;SDS011;26502;51.886;15.604;2022-11-20T07:32:05;29.70;;;17.50;;
40793;SDS011;26502;51.886;15.604;2022-11-20T07:37:12;29.10;;;16.70;;
40793;SDS011;26502;51.886;15.604;2022-11-20T07:42:21;39.70;;;25.70;;
40793;SDS011;26502;51.886;15.604;2022-11-20T07:47:29;34.60;;;21.40;;
40793;SDS011;26502;51.886;15.604;2022-11-20T07:52:41;33.30;;;20.20;;
40793;SDS011;26502;51.886;15.604;2022-11-20T07:57:55;36.60;;;21.10;;
40793;SDS011;26502;51.886;15.604;2022-11-20T08:03:04;39.40;;;22.40;;
40793;SDS011;26502;51.886;15.604;2022-11-20T08:08:13;39.80;;;22.20;;
40793;SDS011;26502;51.886;15.604;2022-11-20T08:13:20;37.70;;;23.20;;
40793;SDS011;26502;51.886;15.604;2022-11-20T08:18:45;32.30;;;18.70;;
40793;SDS011;26502;51.886;15.604;2022-11-20T08:23:52;35.10;;;20.40;;
40793;SDS011;26502;51.886;15.604;2022-11-20T08:28:59;37.10;;;20.70;;
40793;SDS011;26502;51.886;15.604;2022-11-20T08:34:07;35.50;;;20.00;;
40793;SDS011;26502;51.886;15.604;2022-11-20T08:39:15;40.40;;;22.10;;
40793;SDS011;26502;51.886;15.604;2022-11-20T08:44:22;41.40;;;21.30;;
40793;SDS011;26502;51.886;15.604;2022-11-20T08:49:29;45.00;;;27.50;;
40793;SDS011;26502;51.886;15.604;2022-11-20T08:54:38;44.70;;;26.70;;
40793;SDS011;26502;51.886;15.604;2022-11-20T08:59:46;45.20;;;26.10;;
40793;SDS011;26502;51.886;15.604;2022-11-20T09:04:55;41.00;;;22.90;;
40793;SDS011;26502;51.886;15.604;2022-11-20T09:10:03;45.40;;;24.40;;
40793;SDS011;26502;51.886;15.604;2022-11-20T09:15:12;47.20;;;25.50;;
40793;SDS011;26502;51.886;15.604;2022-11-20T09:20:20;46.00;;;23.90;;
40793;SDS011;26502;51.886;15.604;2022-11-20T09:25:27;65.10;;;34.40;;
40793;SDS011;26502;51.886;15.604;2022-11-20T09:30:35;48.80;;;24.80;;
40793;SDS011;26502;51.886;15.604;2022-11-20T09:35:42;42.10;;;22.50;;
40793;SDS011;26502;51.886;15.604;2022-11-20T09:40:51;43.00;;;23.50;;
40793;SDS011;26502;51.886;15.604;2022-11-20T09:46:06;36.40;;;20.60;;
40793;SDS011;26502;51.886;15.604;2022-11-20T09:51:22;39.90;;;22.00;;
40793;SDS011;26502;51.886;15.604;2022-11-20T09:56:40;38.30;;;20.30;;
40793;SDS011;26502;51.886;15.604;2022-11-20T10:06:56;37.90;;;19.70;;
40793;SDS011;26502;51.886;15.604;2022-11-20T10:12:13;40.10;;;22.60;;
40793;SDS011;26502;51.886;15.604;2022-11-20T10:17:27;29.60;;;17.10;;
40793;SDS011;26502;51.886;15.604;2022-11-20T10:22:57;31.40;;;18.50;;
40793;SDS011;26502;51.886;15.604;2022-11-20T10:28:27;31.60;;;18.80;;
40793;SDS011;26502;51.886;15.604;2022-11-20T10:33:46;31.90;;;17.60;;
40793;SDS011;26502;51.886;15.604;2022-11-20T10:38:58;37.10;;;20.30;;
40793;SDS011;26502;51.886;15.604;2022-11-20T10:44:12;32.60;;;19.30;;
40793;SDS011;26502;51.886;15.604;2022-11-20T10:49:42;27.90;;;16.70;;
40793;SDS011;26502;51.886;15.604;2022-11-20T10:54:53;27.00;;;16.40;;
40793;SDS011;26502;51.886;15.604;2022-11-20T11:00:06;25.30;;;15.40;;
40793;SDS011;26502;51.886;15.604;2022-11-20T11:05:21;26.30;;;15.60;;
40793;SDS011;26502;51.886;15.604;2022-11-20T11:10:39;28.10;;;15.60;;
40793;SDS011;26502;51.886;15.604;2022-11-20T11:15:53;22.40;;;13.60;;
40793;SDS011;26502;51.886;15.604;2022-11-20T11:21:01;20.80;;;12.60;;
40793;SDS011;26502;51.886;15.604;2022-11-20T11:26:19;32.20;;;16.50;;
40793;SDS011;26502;51.886;15.604;2022-11-20T11:31:28;21.80;;;13.50;;
40793;SDS011;26502;51.886;15.604;2022-11-20T11:36:37;20.00;;;11.80;;
40793;SDS011;26502;51.886;15.604;2022-11-20T11:41:44;21.00;;;11.80;;
40793;SDS011;26502;51.886;15.604;2022-11-20T11:46:54;23.70;;;13.80;;
40793;SDS011;26502;51.886;15.604;2022-11-20T11:52:08;22.60;;;13.10;;
40793;SDS011;26502;51.886;15.604;2022-11-20T11:57:20;23.70;;;14.00;;
40793;SDS011;26502;51.886;15.604;2022-11-20T12:02:36;23.40;;;13.80;;
40793;SDS011;26502;51.886;15.604;2022-11-20T12:07:52;21.30;;;13.70;;
40793;SDS011;26502;51.886;15.604;2022-11-20T12:13:04;19.20;;;11.70;;
40793;SDS011;26502;51.886;15.604;2022-11-20T12:18:22;21.20;;;13.20;;
40793;SDS011;26502;51.886;15.604;2022-11-20T12:23:30;19.00;;;12.10;;
40793;SDS011;26502;51.886;15.604;2022-11-20T12:28:54;18.00;;;12.00;;
40793;SDS011;26502;51.886;15.604;2022-11-20T12:34:12;22.50;;;14.00;;
40793;SDS011;26502;51.886;15.604;2022-11-20T12:39:42;25.20;;;14.60;;
40793;SDS011;26502;51.886;15.604;2022-11-20T12:45:05;29.00;;;20.00;;
40793;SDS011;26502;51.886;15.604;2022-11-20T12:50:22;33.10;;;17.40;;
40793;SDS011;26502;51.886;15.604;2022-11-20T12:55:44;25.90;;;15.40;;
40793;SDS011;26502;51.886;15.604;2022-11-20T13:01:00;21.80;;;13.00;;
40793;SDS011;26502;51.886;15.604;2022-11-20T13:06:38;29.50;;;16.40;;
40793;SDS011;26502;51.886;15.604;2022-11-20T13:11:47;28.20;;;16.50;;
40793;SDS011;26502;51.886;15.604;2022-11-20T13:17:07;31.00;;;17.30;;
40793;SDS011;26502;51.886;15.604;2022-11-20T13:22:25;22.30;;;14.30;;
40793;SDS011;26502;51.886;15.604;2022-11-20T13:27:33;28.90;;;16.90;;
40793;SDS011;26502;51.886;15.604;2022-11-20T13:32:51;27.70;;;15.30;;
40793;SDS011;26502;51.886;15.604;2022-11-20T13:38:01;28.10;;;14.90;;
40793;SDS011;26502;51.886;15.604;2022-11-20T13:43:18;29.50;;;17.40;;
40793;SDS011;26502;51.886;15.604;2022-11-20T13:48:33;33.90;;;19.70;;
40793;SDS011;26502;51.886;15.604;2022-11-20T13:53:52;31.70;;;17.50;;
40793;SDS011;26502;51.886;15.604;2022-11-20T13:59:25;30.00;;;15.70;;
40793;SDS011;26502;51.886;15.604;2022-11-20T14:04:44;25.90;;;15.70;;
40793;SDS011;26502;51.886;15.604;2022-11-20T14:09:54;27.80;;;16.30;;
40793;SDS011;26502;51.886;15.604;2022-11-20T14:15:04;22.40;;;13.50;;
40793;SDS011;26502;51.886;15.604;2022-11-20T14:20:29;26.80;;;15.40;;
40793;SDS011;26502;51.886;15.604;2022-11-20T14:25:38;21.40;;;13.40;;
40793;SDS011;26502;51.886;15.604;2022-11-20T14:30:50;21.50;;;14.20;;
40793;SDS011;26502;51.886;15.604;2022-11-20T14:36:00;25.20;;;15.70;;
40793;SDS011;26502;51.886;15.604;2022-11-20T14:41:09;28.90;;;15.70;;
40793;SDS011;26502;51.886;15.604;2022-11-20T14:46:23;29.50;;;16.00;;
40793;SDS011;26502;51.886;15.604;2022-11-20T14:51:32;25.00;;;15.60;;
40793;SDS011;26502;51.886;15.604;2022-11-20T14:56:54;23.60;;;13.60;;
40793;SDS011;26502;51.886;15.604;2022-11-20T15:02:04;25.10;;;14.30;;
40793;SDS011;26502;51.886;15.604;2022-11-20T15:07:24;26.00;;;13.90;;
40793;SDS011;26502;51.886;15.604;2022-11-20T15:12:33;25.80;;;14.30;;
40793;SDS011;26502;51.886;15.604;2022-11-20T15:17:46;31.60;;;17.30;;
40793;SDS011;26502;51.886;15.604;2022-11-20T15:22:54;29.80;;;14.90;;
40793;SDS011;26502;51.886;15.604;2022-11-20T15:28:02;27.80;;;16.20;;
40793;SDS011;26502;51.886;15.604;2022-11-20T15:33:18;32.70;;;17.00;;
40793;SDS011;26502;51.886;15.604;2022-11-20T15:38:27;34.00;;;17.40;;
40793;SDS011;26502;51.886;15.604;2022-11-20T15:43:34;33.40;;;18.60;;
40793;SDS011;26502;51.886;15.604;2022-11-20T15:48:43;28.00;;;15.90;;
40793;SDS011;26502;51.886;15.604;2022-11-20T15:54:00;34.50;;;19.00;;
40793;SDS011;26502;51.886;15.604;2022-11-20T15:59:14;37.80;;;20.70;;
40793;SDS011;26502;51.886;15.604;2022-11-20T16:04:22;48.00;;;22.50;;
40793;SDS011;26502;51.886;15.604;2022-11-20T16:09:31;46.80;;;22.90;;
40793;SDS011;26502;51.886;15.604;2022-11-20T16:14:40;44.80;;;23.70;;
40793;SDS011;26502;51.886;15.604;2022-11-20T16:20:09;48.70;;;25.60;;
40793;SDS011;26502;51.886;15.604;2022-11-20T16:25:18;68.50;;;35.80;;
40793;SDS011;26502;51.886;15.604;2022-11-20T16:30:26;68.80;;;33.10;;
40793;SDS011;26502;51.886;15.604;2022-11-20T16:35:34;67.10;;;31.70;;
40793;SDS011;26502;51.886;15.604;2022-11-20T16:40:41;51.20;;;25.60;;
40793;SDS011;26502;51.886;15.604;2022-11-20T16:45:49;44.70;;;22.90;;
40793;SDS011;26502;51.886;15.604;2022-11-20T16:50:57;44.60;;;23.50;;
40793;SDS011;26502;51.886;15.604;2022-11-20T16:56:11;39.30;;;22.20;;
40793;SDS011;26502;51.886;15.604;2022-11-20T17:01:21;34.60;;;19.60;;
40793;SDS011;26502;51.886;15.604;2022-11-20T17:06:33;31.30;;;16.90;;
40793;SDS011;26502;51.886;15.604;2022-11-20T17:11:44;43.20;;;21.90;;
40793;SDS011;26502;51.886;15.604;2022-11-20T17:16:53;61.40;;;30.20;;
40793;SDS011;26502;51.886;15.604;2022-11-20T17:22:01;72.40;;;36.70;;
40793;SDS011;26502;51.886;15.604;2022-11-20T17:27:11;82.90;;;42.10;;
40793;SDS011;26502;51.886;15.604;2022-11-20T17:32:19;80.40;;;40.40;;
40793;SDS011;26502;51.886;15.604;2022-11-20T17:37:29;95.80;;;45.30;;
40793;SDS011;26502;51.886;15.604;2022-11-20T17:42:37;107.90;;;46.80;;
40793;SDS011;26502;51.886;15.604;2022-11-20T17:47:45;93.80;;;41.90;;
40793;SDS011;26502;51.886;15.604;2022-11-20T17:52:55;88.60;;;40.60;;
40793;SDS011;26502;51.886;15.604;2022-11-20T17:58:04;70.70;;;35.30;;
40793;SDS011;26502;51.886;15.604;2022-11-20T18:03:12;64.60;;;30.90;;
40793;SDS011;26502;51.886;15.604;2022-11-20T18:08:19;51.50;;;25.50;;
40793;SDS011;26502;51.886;15.604;2022-11-20T18:13:30;56.50;;;26.90;;
40793;SDS011;26502;51.886;15.604;2022-11-20T18:18:54;57.00;;;27.20;;
40793;SDS011;26502;51.886;15.604;2022-11-20T18:24:07;50.80;;;26.80;;
40793;SDS011;26502;51.886;15.604;2022-11-20T18:29:14;32.70;;;16.50;;
40793;SDS011;26502;51.886;15.604;2022-11-20T18:34:23;29.10;;;15.90;;
40793;SDS011;26502;51.886;15.604;2022-11-20T18:39:34;30.60;;;15.80;;
40793;SDS011;26502;51.886;15.604;2022-11-20T18:44:42;31.00;;;15.60;;
40793;SDS011;26502;51.886;15.604;2022-11-20T18:49:58;25.70;;;15.20;;
40793;SDS011;26502;51.886;15.604;2022-11-20T18:55:07;30.20;;;14.70;;
40793;SDS011;26502;51.886;15.604;2022-11-20T19:00:16;33.00;;;16.00;;
40793;SDS011;26502;51.886;15.604;2022-11-20T19:05:24;30.90;;;16.20;;
40793;SDS011;26502;51.886;15.604;2022-11-20T19:10:35;28.40;;;14.60;;
40793;SDS011;26502;51.886;15.604;2022-11-20T19:15:43;30.40;;;15.70;;
40793;SDS011;26502;51.886;15.604;2022-11-20T19:20:51;33.30;;;18.90;;
40793;SDS011;26502;51.886;15.604;2022-11-20T19:25:59;38.60;;;20.60;;
40793;SDS011;26502;51.886;15.604;2022-11-20T19:31:09;43.00;;;23.70;;
40793;SDS011;26502;51.886;15.604;2022-11-20T19:36:21;43.70;;;26.20;;
40793;SDS011;26502;51.886;15.604;2022-11-20T19:41:32;54.30;;;28.80;;
40793;SDS011;26502;51.886;15.604;2022-11-20T19:46:41;36.80;;;19.30;;
40793;SDS011;26502;51.886;15.604;2022-11-20T19:51:50;65.10;;;32.20;;
40793;SDS011;26502;51.886;15.604;2022-11-20T19:57:00;67.70;;;36.40;;
40793;SDS011;26502;51.886;15.604;2022-11-20T20:02:10;46.70;;;24.10;;
40793;SDS011;26502;51.886;15.604;2022-11-20T20:07:19;35.00;;;19.30;;
40793;SDS011;26502;51.886;15.604;2022-11-20T20:12:28;46.40;;;22.80;;
40793;SDS011;26502;51.886;15.604;2022-11-20T20:17:37;51.40;;;24.70;;
40793;SDS011;26502;51.886;15.604;2022-11-20T20:22:46;32.80;;;16.30;;
40793;SDS011;26502;51.886;15.604;2022-11-20T20:27:55;46.70;;;21.70;;
40793;SDS011;26502;51.886;15.604;2022-11-20T20:33:03;52.00;;;27.10;;
40793;SDS011;26502;51.886;15.604;2022-11-20T20:38:12;55.30;;;25.70;;
40793;SDS011;26502;51.886;15.604;2022-11-20T20:43:21;46.30;;;23.80;;
40793;SDS011;26502;51.886;15.604;2022-11-20T20:48:29;60.90;;;29.70;;
40793;SDS011;26502;51.886;15.604;2022-11-20T20:53:39;60.10;;;32.40;;
40793;SDS011;26502;51.886;15.604;2022-11-20T20:58:48;57.80;;;28.60;;
40793;SDS011;26502;51.886;15.604;2022-11-20T21:03:57;52.50;;;27.40;;
40793;SDS011;26502;51.886;15.604;2022-11-20T21:09:05;51.70;;;29.40;;
40793;SDS011;26502;51.886;15.604;2022-11-20T21:14:13;59.00;;;29.30;;
40793;SDS011;26502;51.886;15.604;2022-11-20T21:19:21;54.80;;;27.20;;
40793;SDS011;26502;51.886;15.604;2022-11-20T21:24:30;42.20;;;22.70;;
40793;SDS011;26502;51.886;15.604;2022-11-20T21:34:44;62.20;;;29.90;;
40793;SDS011;26502;51.886;15.604;2022-11-20T21:39:52;84.40;;;39.90;;
40793;SDS011;26502;51.886;15.604;2022-11-20T21:45:01;68.90;;;33.20;;
40793;SDS011;26502;51.886;15.604;2022-11-20T21:50:10;58.90;;;28.20;;
40793;SDS011;26502;51.886;15.604;2022-11-20T21:55:19;99.70;;;47.30;;
40793;SDS011;26502;51.886;15.604;2022-11-20T22:00:27;96.80;;;47.50;;
40793;SDS011;26502;51.886;15.604;2022-11-20T22:05:34;111.70;;;55.70;;
40793;SDS011;26502;51.886;15.604;2022-11-20T22:10:43;111.00;;;54.90;;
40793;SDS011;26502;51.886;15.604;2022-11-20T22:16:01;99.00;;;47.90;;
40793;SDS011;26502;51.886;15.604;2022-11-20T22:21:08;97.80;;;48.70;;
40793;SDS011;26502;51.886;15.604;2022-11-20T22:26:17;94.00;;;46.30;;
40793;SDS011;26502;51.886;15.604;2022-11-20T22:31:27;67.40;;;33.50;;
40793;SDS011;26502;51.886;15.604;2022-11-20T22:36:35;93.60;;;46.50;;
40793;SDS011;26502;51.886;15.604;2022-11-20T22:41:43;99.60;;;47.80;;
40793;SDS011;26502;51.886;15.604;2022-11-20T22:46:50;110.50;;;51.90;;
40793;SDS011;26502;51.886;15.604;2022-11-20T22:51:57;67.30;;;34.50;;
40793;SDS011;26502;51.886;15.604;2022-11-20T22:57:04;61.50;;;30.50;;
40793;SDS011;26502;51.886;15.604;2022-11-20T23:02:11;65.00;;;32.20;;
40793;SDS011;26502;51.886;15.604;2022-11-20T23:07:19;62.80;;;31.60;;
40793;SDS011;26502;51.886;15.604;2022-11-20T23:12:26;66.40;;;31.60;;
40793;SDS011;26502;51.886;15.604;2022-11-20T23:17:35;58.60;;;29.00;;
40793;SDS011;26502;51.886;15.604;2022-11-20T23:22:42;45.10;;;23.20;;
40793;SDS011;26502;51.886;15.604;2022-11-20T23:27:50;37.10;;;21.30;;
40793;SDS011;26502;51.886;15.604;2022-11-20T23:32:58;38.80;;;19.70;;
40793;SDS011;26502;51.886;15.604;2022-11-20T23:38:05;36.00;;;19.80;;
40793;SDS011;26502;51.886;15.604;2022-11-20T23:43:13;33.10;;;18.00;;
40793;SDS011;26502;51.886;15.604;2022-11-20T23:48:22;39.20;;;20.10;;
40793;SDS011;26502;51.886;15.604;2022-11-20T23:53:32;34.80;;;18.40;;
40793;SDS011;26502;51.886;15.604;2022-11-20T23:58:43;30.80;;;18.10;;
